KBJC/BJC METAR and TAF weather

Enter ICAO airport designator
Station Type Date Time Source
KBJC METAR 2019/10/16 18:52 UTC NOAA

KBJC 161852Z 00000KT 30SM BKN220 24/M08 A3014


Station Type Date Time Source
KBJC Decoded METAR 2019/10/16 18:52 UTC NOAA

Broomfield / Jeffco, CO, United States (KBJC) 39-55N 105-07W
Oct 16, 2019 - 02:52 PM EDT / 2019.10.16 1852 UTC
Wind: Calm:0
Visibility: 30 mile(s):0
Sky conditions: mostly cloudy
Temperature: 75 F (24 C)
Dew Point: 17 F (-8 C)
Relative Humidity: 11%
Pressure (altimeter): 30.14 in. Hg (1020 hPa)
ob: KBJC 161852Z 00000KT 30SM BKN220 24/M08 A3014
cycle: 19

Station Type Date Time Source
KBJC TAF 2019/10/16 18:39 UTC NOAA

TAF KBJC 161736Z 1618/1718 VRB05KT P6SM BKN220
FM162000 11008KT P6SM BKN220
FM170100 29006KT P6SM SCT220

Example: see airport list